createdAt,value
2022-12-18T00:02:37.530Z,28.00
2022-12-18T00:05:27.063Z,26.83
2022-12-18T00:07:58.649Z,27.23
2022-12-18T00:10:54.720Z,26.73
2022-12-18T00:13:29.585Z,25.23
2022-12-18T00:15:58.287Z,27.03
2022-12-18T00:18:27.157Z,27.83
2022-12-18T00:20:55.614Z,27.80
2022-12-18T00:23:24.625Z,28.17
2022-12-18T00:25:57.002Z,28.23
2022-12-18T00:28:49.560Z,28.50
2022-12-18T00:31:47.820Z,28.07
2022-12-18T00:34:20.564Z,28.23
2022-12-18T00:36:51.840Z,28.90
2022-12-18T00:39:23.279Z,29.80
2022-12-18T00:42:34.036Z,29.90
2022-12-18T00:45:03.677Z,28.97
2022-12-18T00:47:33.555Z,27.47
2022-12-18T00:50:12.546Z,28.73
2022-12-18T00:52:53.665Z,28.17
2022-12-18T00:55:24.057Z,27.13
2022-12-18T00:57:55.104Z,25.73
2022-12-18T01:00:25.287Z,25.67
2022-12-18T01:02:56.733Z,26.53
2022-12-18T01:05:30.798Z,25.17
2022-12-18T01:08:01.115Z,25.23
2022-12-18T01:10:39.366Z,24.90
2022-12-18T01:13:13.070Z,24.50
2022-12-18T01:15:42.784Z,24.67
2022-12-18T01:18:11.631Z,25.53
2022-12-18T01:20:44.022Z,22.90
2022-12-18T01:23:14.359Z,23.50
2022-12-18T01:25:46.139Z,24.97
2022-12-18T01:28:21.010Z,25.23
2022-12-18T01:31:03.194Z,26.37
2022-12-18T01:33:34.283Z,25.33
2022-12-18T01:36:04.294Z,25.30
2022-12-18T01:38:32.506Z,25.83
2022-12-18T01:41:26.822Z,25.70
2022-12-18T01:45:05.922Z,25.83
2022-12-18T01:47:42.995Z,26.90
2022-12-18T01:50:15.697Z,25.63
2022-12-18T01:53:13.717Z,25.57
2022-12-18T01:55:57.252Z,24.93
2022-12-18T01:58:58.448Z,26.57
2022-12-18T02:01:27.904Z,25.83
2022-12-18T02:03:59.478Z,26.30
2022-12-18T02:06:37.909Z,27.50
2022-12-18T02:09:13.785Z,26.43
2022-12-18T02:11:55.410Z,26.00
2022-12-18T02:14:32.778Z,25.93
2022-12-18T02:17:09.702Z,23.73
2022-12-18T02:20:05.081Z,23.60
2022-12-18T02:22:44.898Z,23.77
2022-12-18T02:28:18.122Z,22.63
2022-12-18T02:31:13.849Z,23.97
2022-12-18T02:33:44.401Z,22.13
2022-12-18T02:36:15.735Z,22.83
2022-12-18T02:38:49.745Z,23.30
2022-12-18T02:41:22.845Z,23.27
2022-12-18T02:43:57.835Z,23.70
2022-12-18T02:46:34.355Z,23.17
2022-12-18T02:49:12.044Z,22.97
2022-12-18T02:51:55.673Z,23.53
2022-12-18T02:54:40.419Z,21.47
2022-12-18T02:57:36.880Z,22.00
2022-12-18T03:00:11.133Z,23.40
2022-12-18T03:03:05.956Z,22.57
2022-12-18T03:05:40.197Z,23.77
2022-12-18T03:08:15.335Z,23.03
2022-12-18T03:10:47.930Z,21.63
2022-12-18T03:13:31.114Z,23.00
2022-12-18T03:16:22.885Z,23.97
2022-12-18T03:19:18.766Z,23.47
2022-12-18T03:21:56.828Z,22.17
2022-12-18T03:24:27.089Z,22.23
2022-12-18T03:27:02.306Z,22.73
2022-12-18T03:29:37.894Z,22.70
2022-12-18T03:32:50.382Z,21.47
2022-12-18T03:35:38.762Z,22.47
2022-12-18T03:38:11.931Z,22.37
2022-12-18T03:40:54.711Z,23.23
2022-12-18T03:43:40.748Z,22.87
2022-12-18T03:46:15.870Z,21.43
2022-12-18T03:49:00.532Z,21.97
2022-12-18T03:51:40.278Z,21.87
2022-12-18T03:54:11.991Z,21.27
2022-12-18T03:56:59.857Z,21.13
2022-12-18T03:59:31.431Z,21.10
2022-12-18T04:02:01.832Z,21.47
2022-12-18T04:04:34.114Z,21.33
2022-12-18T04:07:06.605Z,20.73
2022-12-18T04:09:56.179Z,20.67
2022-12-18T04:15:16.061Z,21.87
2022-12-18T04:18:18.338Z,19.80
2022-12-18T04:20:49.731Z,21.47
2022-12-18T04:23:20.003Z,21.87
2022-12-18T04:25:52.984Z,20.63
2022-12-18T04:28:21.155Z,21.00
2022-12-18T04:30:50.287Z,21.10
2022-12-18T04:33:21.746Z,19.97
2022-12-18T04:35:56.643Z,20.10
2022-12-18T04:38:25.663Z,20.70
2022-12-18T04:41:01.198Z,19.33
2022-12-18T04:43:42.756Z,18.30
2022-12-18T04:46:14.381Z,20.47
2022-12-18T04:48:46.516Z,19.47
2022-12-18T04:51:25.942Z,19.43
2022-12-18T04:53:58.468Z,18.73
2022-12-18T04:56:50.425Z,19.00
2022-12-18T04:59:19.780Z,20.63
2022-12-18T05:01:51.272Z,19.47
2022-12-18T05:04:27.852Z,20.33
2022-12-18T05:06:59.036Z,20.43
2022-12-18T05:09:27.409Z,19.20
2022-12-18T05:11:58.103Z,20.67
2022-12-18T05:14:30.776Z,18.70
2022-12-18T05:17:01.199Z,19.43
2022-12-18T05:19:41.213Z,19.53
2022-12-18T05:22:12.228Z,20.57
2022-12-18T05:24:46.025Z,19.13
2022-12-18T05:27:14.597Z,19.40
2022-12-18T05:29:44.420Z,21.00
2022-12-18T05:32:19.225Z,19.93
2022-12-18T05:34:47.944Z,19.40
2022-12-18T05:37:43.229Z,21.17
2022-12-18T05:40:17.003Z,17.80
2022-12-18T05:42:45.174Z,19.03
2022-12-18T05:45:16.953Z,20.87
2022-12-18T05:47:49.168Z,18.70
2022-12-18T05:50:20.627Z,19.43
2022-12-18T05:52:50.136Z,19.43
2022-12-18T05:55:28.764Z,19.90
2022-12-18T05:57:58.290Z,18.53
2022-12-18T06:00:26.364Z,19.13
2022-12-18T06:03:00.223Z,17.93
2022-12-18T06:05:28.574Z,18.40
2022-12-18T06:07:57.909Z,17.70
2022-12-18T06:10:25.939Z,19.20
2022-12-18T06:12:53.915Z,17.83
2022-12-18T06:15:21.907Z,17.47
2022-12-18T06:17:49.899Z,19.37
2022-12-18T06:20:18.124Z,18.03
2022-12-18T06:22:46.197Z,17.47
2022-12-18T06:25:15.644Z,19.27
2022-12-18T06:27:43.959Z,17.20
2022-12-18T06:30:14.058Z,17.80
2022-12-18T06:32:42.123Z,17.97
2022-12-18T06:35:10.700Z,18.13
2022-12-18T06:37:38.805Z,18.00
2022-12-18T06:40:08.347Z,17.17
2022-12-18T06:42:37.653Z,16.23
2022-12-18T06:45:06.345Z,17.97
2022-12-18T06:47:34.323Z,15.93
2022-12-18T06:50:02.388Z,16.83
2022-12-18T06:52:30.425Z,18.67
2022-12-18T06:54:58.415Z,16.50
2022-12-18T06:57:26.464Z,17.03
2022-12-18T06:59:55.928Z,18.13
2022-12-18T07:02:24.080Z,17.37
2022-12-18T07:04:52.388Z,17.30
2022-12-18T07:07:20.484Z,15.20
2022-12-18T07:09:48.607Z,15.73
2022-12-18T07:12:16.565Z,16.37
2022-12-18T07:14:44.903Z,17.40
2022-12-18T07:17:14.417Z,17.03
2022-12-18T07:19:42.481Z,16.20
2022-12-18T07:22:10.520Z,15.40
2022-12-18T07:24:38.792Z,16.50
2022-12-18T07:27:06.864Z,16.00
2022-12-18T07:29:36.314Z,15.13
2022-12-18T07:32:04.445Z,14.87
2022-12-18T07:34:33.861Z,14.53
2022-12-18T07:37:02.215Z,14.70
2022-12-18T07:39:30.168Z,16.53
2022-12-18T07:42:15.597Z,14.93
2022-12-18T07:44:43.882Z,14.33
2022-12-18T07:47:12.413Z,16.73
2022-12-18T07:49:41.901Z,14.17
2022-12-18T07:52:10.622Z,15.67
2022-12-18T07:54:38.630Z,14.23
2022-12-18T07:57:16.418Z,15.10
2022-12-18T07:59:54.964Z,13.13
2022-12-18T08:02:23.041Z,14.20
2022-12-18T08:04:52.482Z,13.30
2022-12-18T08:07:20.575Z,14.43
2022-12-18T08:09:48.597Z,13.40
2022-12-18T08:12:16.626Z,13.40
2022-12-18T08:14:44.570Z,13.23
2022-12-18T08:17:12.576Z,12.63
2022-12-18T08:19:40.601Z,12.07
2022-12-18T08:22:09.937Z,13.90
2022-12-18T08:24:37.956Z,12.93
2022-12-18T08:27:28.453Z,13.47
2022-12-18T08:29:54.288Z,13.03
2022-12-18T08:32:22.624Z,13.73
2022-12-18T08:34:51.687Z,12.97
2022-12-18T08:37:21.120Z,12.10
2022-12-18T08:39:49.214Z,12.60
2022-12-18T08:42:34.382Z,13.13
2022-12-18T08:45:02.932Z,13.13
2022-12-18T08:47:31.110Z,12.03
2022-12-18T08:49:59.073Z,13.57
2022-12-18T08:52:29.230Z,12.30
2022-12-18T08:54:57.171Z,12.57
2022-12-18T08:57:25.209Z,12.00
2022-12-18T08:59:53.435Z,12.10
2022-12-18T09:02:21.770Z,12.43
2022-12-18T09:04:55.388Z,13.37
2022-12-18T09:07:29.598Z,13.10
2022-12-18T09:09:57.677Z,12.20
2022-12-18T09:12:30.803Z,12.50
2022-12-18T09:14:59.070Z,11.90
2022-12-18T09:17:27.295Z,12.07
2022-12-18T09:19:55.459Z,12.73
2022-12-18T09:22:23.524Z,13.10
2022-12-18T09:24:52.917Z,13.43
2022-12-18T09:27:20.854Z,12.63
2022-12-18T09:29:55.196Z,13.00
2022-12-18T09:32:23.401Z,12.90
2022-12-18T09:34:51.737Z,12.63
2022-12-18T09:37:20.025Z,13.00
2022-12-18T09:39:47.981Z,12.70
2022-12-18T09:42:23.466Z,14.33
2022-12-18T09:44:54.193Z,13.77
2022-12-18T09:47:26.341Z,13.33
2022-12-18T09:49:58.827Z,11.97
2022-12-18T09:52:31.368Z,13.00
2022-12-18T09:55:03.519Z,11.57
2022-12-18T09:57:37.451Z,13.70
2022-12-18T10:00:19.089Z,12.43
2022-12-18T10:02:47.844Z,11.83
2022-12-18T10:05:18.459Z,12.50
2022-12-18T10:07:57.545Z,12.33
2022-12-18T10:10:33.934Z,11.17
2022-12-18T10:13:13.361Z,11.83
2022-12-18T10:15:53.839Z,12.77
2022-12-18T10:18:31.156Z,11.63
2022-12-18T10:21:05.500Z,11.97
2022-12-18T10:23:46.383Z,11.90
2022-12-18T10:26:16.474Z,11.90
2022-12-18T10:28:46.950Z,11.13
2022-12-18T10:31:18.230Z,11.73
2022-12-18T10:33:46.523Z,13.23
2022-12-18T10:36:14.725Z,12.77
2022-12-18T10:38:43.371Z,12.00
2022-12-18T10:41:29.338Z,12.07
2022-12-18T10:44:23.607Z,12.70
2022-12-18T10:46:57.270Z,10.73
2022-12-18T10:49:28.199Z,11.97
2022-12-18T10:52:09.424Z,10.37
2022-12-18T10:54:38.966Z,12.00
2022-12-18T10:57:32.908Z,12.00
2022-12-18T11:00:22.262Z,11.37
2022-12-18T11:02:50.936Z,11.83
2022-12-18T11:05:28.300Z,12.00
2022-12-18T11:07:57.376Z,12.03
2022-12-18T11:10:30.145Z,12.00
2022-12-18T11:13:11.001Z,12.87
2022-12-18T11:15:43.602Z,11.40
2022-12-18T11:18:21.174Z,11.53
2022-12-18T11:20:58.530Z,12.23
2022-12-18T11:23:27.803Z,11.20
2022-12-18T11:25:59.086Z,12.33
2022-12-18T11:28:41.747Z,11.30
2022-12-18T11:31:29.379Z,11.23
2022-12-18T11:34:28.682Z,12.20
2022-12-18T11:37:00.904Z,11.63
2022-12-18T11:39:34.716Z,12.03
2022-12-18T11:42:11.668Z,12.60
2022-12-18T11:44:49.890Z,11.97
2022-12-18T11:47:33.879Z,11.07
2022-12-18T11:50:04.328Z,12.23
2022-12-18T11:52:39.511Z,12.00
2022-12-18T11:55:16.416Z,11.67
2022-12-18T11:57:57.189Z,11.23
2022-12-18T12:00:25.459Z,11.60
2022-12-18T12:03:23.231Z,11.23
2022-12-18T12:06:05.472Z,11.17
2022-12-18T12:08:47.549Z,12.00
2022-12-18T12:11:21.608Z,12.20
2022-12-18T12:14:00.031Z,11.83
2022-12-18T12:16:36.601Z,11.00
2022-12-18T12:19:20.749Z,12.63
2022-12-18T12:21:55.150Z,12.20
2022-12-18T12:24:33.571Z,11.80
2022-12-18T12:27:11.068Z,12.00
2022-12-18T12:29:50.429Z,11.70
2022-12-18T12:32:29.771Z,11.23
2022-12-18T12:35:11.908Z,11.87
2022-12-18T12:37:49.383Z,12.23
2022-12-18T12:40:50.278Z,11.60
2022-12-18T12:43:22.711Z,11.57
2022-12-18T12:45:56.935Z,12.63
2022-12-18T12:48:38.018Z,11.57
2022-12-18T12:51:14.603Z,11.67
2022-12-18T12:53:43.891Z,12.30
2022-12-18T12:56:15.639Z,10.33
2022-12-18T12:58:57.843Z,11.83
2022-12-18T13:01:34.900Z,11.90
2022-12-18T13:04:33.238Z,10.87
2022-12-18T13:07:08.639Z,11.53
2022-12-18T13:09:57.314Z,11.37
2022-12-18T13:12:42.852Z,10.10
2022-12-18T13:15:22.711Z,11.33
2022-12-18T13:17:51.302Z,11.93
2022-12-18T13:20:19.362Z,12.53
2022-12-18T13:22:51.244Z,11.30
2022-12-18T13:25:40.309Z,11.53
2022-12-18T13:28:12.863Z,11.87
2022-12-18T13:30:53.725Z,11.30
2022-12-18T13:34:16.597Z,12.00
2022-12-18T13:36:34.463Z,10.43
2022-12-18T13:39:29.939Z,11.23
2022-12-18T13:42:49.368Z,10.90
2022-12-18T13:45:48.010Z,11.30
2022-12-18T13:48:25.590Z,10.17
2022-12-18T13:50:58.592Z,9.93
2022-12-18T13:53:30.170Z,10.07
2022-12-18T13:56:00.300Z,9.40
2022-12-18T13:58:28.597Z,10.23
2022-12-18T14:00:56.636Z,10.40
2022-12-18T14:03:28.197Z,9.93
2022-12-18T14:06:00.764Z,10.13
2022-12-18T14:08:35.350Z,8.40
2022-12-18T14:11:07.863Z,9.50
2022-12-18T14:13:39.133Z,9.83
2022-12-18T14:16:15.731Z,9.90
2022-12-18T14:18:48.869Z,10.23
2022-12-18T14:21:23.054Z,10.67
2022-12-18T14:23:51.206Z,10.53
2022-12-18T14:26:28.129Z,10.57
2022-12-18T14:28:56.574Z,10.77
2022-12-18T14:31:26.678Z,10.47
2022-12-18T14:33:55.223Z,11.10
2022-12-18T14:36:24.990Z,10.83
2022-12-18T14:38:55.544Z,10.90
2022-12-18T14:41:25.830Z,10.57
2022-12-18T14:43:56.099Z,10.73
2022-12-18T14:46:33.646Z,11.40
2022-12-18T14:49:03.999Z,11.30
2022-12-18T14:51:35.496Z,11.03
2022-12-18T14:54:09.121Z,10.13
2022-12-18T14:56:44.369Z,10.43
2022-12-18T14:59:23.873Z,11.30
2022-12-18T15:02:06.152Z,11.73
2022-12-18T15:04:39.511Z,12.63
2022-12-18T15:07:16.064Z,10.97
2022-12-18T15:09:46.815Z,12.17
2022-12-18T15:12:31.465Z,10.97
2022-12-18T15:14:59.513Z,11.37
2022-12-18T15:17:29.931Z,11.03
2022-12-18T15:20:03.450Z,11.30
2022-12-18T15:22:36.052Z,13.03
2022-12-18T15:25:05.876Z,11.57
2022-12-18T15:27:38.807Z,10.97
2022-12-18T15:30:22.395Z,11.10
2022-12-18T15:32:51.443Z,12.13
2022-12-18T15:35:56.193Z,11.97
2022-12-18T15:38:24.448Z,11.30
2022-12-18T15:40:52.419Z,11.27
2022-12-18T15:43:38.976Z,10.87
2022-12-18T15:46:09.194Z,10.53
2022-12-18T15:48:42.049Z,12.00
2022-12-18T15:51:16.987Z,11.03
2022-12-18T15:53:46.021Z,11.77
2022-12-18T15:56:32.700Z,12.03
2022-12-18T15:59:03.683Z,11.83
2022-12-18T16:01:36.028Z,12.73
2022-12-18T16:04:06.455Z,11.60
2022-12-18T16:06:51.071Z,11.53
2022-12-18T16:09:26.201Z,12.10
2022-12-18T16:11:55.148Z,12.67
2022-12-18T16:14:27.390Z,12.20
2022-12-18T16:16:57.375Z,11.83
2022-12-18T16:19:27.176Z,11.90
2022-12-18T16:21:57.209Z,12.03
2022-12-18T16:24:27.584Z,12.07
2022-12-18T16:26:56.528Z,12.13
2022-12-18T16:29:28.395Z,12.77
2022-12-18T16:31:56.648Z,12.13
2022-12-18T16:34:28.869Z,11.97
2022-12-18T16:37:03.332Z,11.97
2022-12-18T16:39:35.375Z,13.10
2022-12-18T16:42:05.711Z,12.70
2022-12-18T16:44:36.209Z,12.73
2022-12-18T16:47:05.951Z,12.03
2022-12-18T16:49:36.227Z,12.73
2022-12-18T16:52:05.331Z,12.60
2022-12-18T16:54:35.319Z,14.30
2022-12-18T16:57:05.389Z,13.70
2022-12-18T16:59:35.282Z,12.00
2022-12-18T17:02:10.592Z,12.93
2022-12-18T17:04:38.821Z,13.03
2022-12-18T17:07:07.932Z,12.90
2022-12-18T17:09:36.560Z,13.23
2022-12-18T17:12:08.287Z,14.93
2022-12-18T17:14:38.259Z,13.27
2022-12-18T17:17:20.758Z,14.30
2022-12-18T17:19:50.385Z,14.00
2022-12-18T17:22:18.654Z,13.37
2022-12-18T17:24:47.964Z,13.87
2022-12-18T17:27:16.699Z,13.97
2022-12-18T17:29:49.812Z,15.90
2022-12-18T17:32:42.999Z,13.77
2022-12-18T17:35:11.617Z,13.37
2022-12-18T17:37:39.918Z,13.83
2022-12-18T17:40:09.933Z,14.60
2022-12-18T17:42:38.021Z,13.53
2022-12-18T17:45:08.815Z,14.40
2022-12-18T17:47:37.151Z,14.87
2022-12-18T17:50:05.538Z,14.47
2022-12-18T17:52:39.640Z,14.87
2022-12-18T17:55:08.666Z,14.47
2022-12-18T17:57:38.866Z,14.60
2022-12-18T18:00:12.593Z,14.87
2022-12-18T18:02:40.991Z,15.10
2022-12-18T18:05:13.267Z,13.63
2022-12-18T18:07:42.958Z,15.23
2022-12-18T18:10:14.278Z,15.63
2022-12-18T18:12:59.711Z,15.13
2022-12-18T18:15:29.289Z,14.63
2022-12-18T18:17:57.298Z,16.07
2022-12-18T18:20:25.458Z,14.83
2022-12-18T18:22:53.533Z,15.87
2022-12-18T18:25:21.796Z,15.83
2022-12-18T18:27:50.394Z,15.93
2022-12-18T18:30:18.775Z,16.60
2022-12-18T18:32:50.368Z,15.13
2022-12-18T18:35:52.368Z,16.17
2022-12-18T18:38:09.683Z,15.43
2022-12-18T18:40:37.765Z,14.87
2022-12-18T18:43:05.971Z,16.40
2022-12-18T18:45:36.591Z,16.83
2022-12-18T18:48:07.502Z,15.43
2022-12-18T18:50:35.894Z,18.13
2022-12-18T18:53:05.048Z,17.13
2022-12-18T18:55:34.899Z,15.93
2022-12-18T18:58:06.776Z,16.10
2022-12-18T19:00:35.395Z,16.40
2022-12-18T19:03:07.221Z,17.30
2022-12-18T19:05:39.837Z,17.03
2022-12-18T19:08:12.953Z,17.00
2022-12-18T19:10:47.761Z,16.03
2022-12-18T19:13:23.177Z,16.57
2022-12-18T19:15:52.750Z,17.60
2022-12-18T19:18:23.625Z,17.23
2022-12-18T19:21:01.657Z,16.03
2022-12-18T19:23:30.587Z,15.20
2022-12-18T19:26:27.933Z,17.97
2022-12-18T19:29:05.070Z,18.23
2022-12-18T19:31:37.252Z,16.73
2022-12-18T19:34:12.312Z,17.70
2022-12-18T19:36:43.974Z,16.07
2022-12-18T19:39:35.387Z,17.57
2022-12-18T19:42:03.927Z,16.93
2022-12-18T19:44:32.191Z,18.17
2022-12-18T19:47:00.937Z,15.47
2022-12-18T19:49:32.592Z,18.60
2022-12-18T19:52:02.369Z,19.13
2022-12-18T19:54:31.067Z,17.87
2022-12-18T19:56:59.371Z,16.43
2022-12-18T19:59:28.405Z,16.80
2022-12-18T20:02:03.062Z,16.90
2022-12-18T20:04:33.390Z,16.87
2022-12-18T20:07:01.947Z,18.17
2022-12-18T20:09:31.009Z,17.50
2022-12-18T20:11:59.764Z,17.63
2022-12-18T20:14:28.548Z,16.57
2022-12-18T20:17:02.439Z,17.50
2022-12-18T20:19:32.804Z,20.83
2022-12-18T20:22:05.494Z,18.00
2022-12-18T20:24:37.183Z,17.77
2022-12-18T20:27:11.001Z,18.40
2022-12-18T20:29:43.707Z,17.57
2022-12-18T20:32:14.984Z,17.70
2022-12-18T20:34:45.860Z,18.17
2022-12-18T20:37:15.328Z,16.83
2022-12-18T20:40:06.006Z,16.60
2022-12-18T20:42:36.467Z,17.83
2022-12-18T20:45:06.218Z,17.27
2022-12-18T20:47:36.657Z,18.40
2022-12-18T20:50:07.294Z,18.73
2022-12-18T20:52:35.492Z,19.27
2022-12-18T20:55:05.620Z,19.40
2022-12-18T20:57:34.970Z,19.03
2022-12-18T21:00:26.455Z,19.87
2022-12-18T21:03:00.519Z,17.67
2022-12-18T21:05:34.842Z,20.43
2022-12-18T21:08:05.584Z,20.03
2022-12-18T21:10:34.107Z,17.83
2022-12-18T21:13:05.136Z,18.60
2022-12-18T21:15:36.279Z,17.33
2022-12-18T21:18:05.177Z,19.37
2022-12-18T21:20:35.836Z,20.03
2022-12-18T21:23:13.232Z,0.13
2022-12-18T21:25:45.902Z,1.70
2022-12-18T21:28:18.364Z,2.00
2022-12-18T21:30:49.285Z,0.07
2022-12-18T21:33:18.145Z,0.10
2022-12-18T21:35:51.544Z,0.10
2022-12-18T21:38:22.082Z,0.00
2022-12-18T21:40:52.055Z,2.30
2022-12-18T21:43:37.609Z,0.40
2022-12-18T21:46:15.522Z,0.10
2022-12-18T21:48:44.278Z,0.00
2022-12-18T21:51:13.905Z,0.00
2022-12-18T21:53:43.378Z,0.10
2022-12-18T21:56:13.784Z,0.00
2022-12-18T21:58:56.957Z,0.10
2022-12-18T22:01:48.527Z,0.37
2022-12-18T22:04:17.701Z,0.07
2022-12-18T22:06:48.697Z,0.87
2022-12-18T22:09:38.234Z,0.10
2022-12-18T22:12:09.460Z,1.30
2022-12-18T22:14:38.643Z,0.10
2022-12-18T22:17:06.840Z,0.47
2022-12-18T22:19:42.506Z,3.03
2022-12-18T22:22:14.344Z,0.10
2022-12-18T22:24:46.543Z,0.10
2022-12-18T22:27:16.065Z,1.03
2022-12-18T22:30:01.620Z,0.10
2022-12-18T22:32:30.679Z,0.07
2022-12-18T22:35:06.176Z,0.27
2022-12-18T22:38:00.396Z,2.20
2022-12-18T22:40:30.553Z,1.37
2022-12-18T22:43:00.105Z,0.20
2022-12-18T22:45:29.955Z,0.10
2022-12-18T22:48:18.611Z,0.10
2022-12-18T22:50:47.404Z,0.00
2022-12-18T22:53:21.687Z,0.00
2022-12-18T22:55:50.477Z,0.10
2022-12-18T22:58:22.449Z,0.10
2022-12-18T23:00:51.563Z,0.10
2022-12-18T23:03:23.027Z,0.00
2022-12-18T23:05:55.921Z,0.00
2022-12-18T23:08:26.653Z,0.20
2022-12-18T23:10:57.152Z,0.30
2022-12-18T23:13:28.247Z,0.67
2022-12-18T23:15:57.542Z,0.40
2022-12-18T23:18:26.403Z,0.30
2022-12-18T23:20:57.935Z,0.50
2022-12-18T23:23:30.411Z,0.50
2022-12-18T23:26:04.793Z,0.63
2022-12-18T23:28:37.222Z,0.00
2022-12-18T23:31:08.407Z,0.10
2022-12-18T23:33:37.511Z,0.00
2022-12-18T23:36:06.786Z,0.07
2022-12-18T23:38:38.151Z,0.10
2022-12-18T23:41:10.977Z,0.73
2022-12-18T23:43:40.816Z,0.00
2022-12-18T23:46:15.846Z,0.00
2022-12-18T23:48:48.253Z,2.57
2022-12-18T23:51:23.262Z,0.20
2022-12-18T23:53:54.764Z,0.10
2022-12-18T23:56:23.908Z,0.10
2022-12-18T23:58:53.900Z,0.10
